Time;durP1;ratioP1;P1;durP2;ratioP2;P2;SDS_P1;SDS_P2;PMS_P1;PMS_P2;Temp;Humidity;BMP_temperature;BMP_pressure;BME280_temperature;BME280_humidity;BME280_pressure;Samples;Min_cycle;Max_cycle;Signal;HPM_P1;HPM_P2
2022/03/11 00:01:18;;;;;;;24.58;14.75;;;9.80;99.90;;;;;;5082444;28;20028;-75
2022/03/11 00:03:44;;;;;;;23.88;15.88;;;9.80;99.90;;;;;;5083581;28;20020;-74
2022/03/11 00:06:09;;;;;;;27.48;15.63;;;9.90;99.90;;;;;;5083520;28;20017;-74
2022/03/11 00:08:35;;;;;;;25.38;15.88;;;9.90;99.90;;;;;;5083081;28;20139;-74
2022/03/11 00:11:01;;;;;;;26.10;16.80;;;9.90;99.90;;;;;;5083445;28;20035;-74
2022/03/11 00:13:27;;;;;;;28.10;16.83;;;9.80;99.90;;;;;;5069052;28;20029;-76
2022/03/11 00:15:53;;;;;;;28.70;18.50;;;9.90;99.90;;;;;;5064497;28;20025;-77
2022/03/11 00:18:20;;;;;;;30.20;17.92;;;9.90;99.90;;;;;;5064000;28;20053;-75
2022/03/11 00:20:45;;;;;;;26.10;16.88;;;10.00;99.90;;;;;;5062608;28;20251;-74
2022/03/11 00:23:11;;;;;;;28.65;18.35;;;10.00;99.90;;;;;;5064176;28;20025;-74
2022/03/11 00:25:37;;;;;;;30.60;17.92;;;10.00;99.90;;;;;;5063109;28;20052;-75
2022/03/11 00:28:03;;;;;;;25.90;17.02;;;10.10;99.90;;;;;;5063763;28;20212;-74
2022/03/11 00:30:29;;;;;;;28.63;17.63;;;10.10;99.90;;;;;;5063582;28;20021;-74
2022/03/11 00:32:55;;;;;;;27.30;16.17;;;10.10;99.90;;;;;;5062422;28;20300;-74
2022/03/11 00:35:21;;;;;;;29.80;16.75;;;10.10;99.90;;;;;;5046419;28;20371;-74
2022/03/11 00:37:47;;;;;;;29.38;17.05;;;10.20;99.90;;;;;;5079864;28;20047;-74
2022/03/11 00:40:13;;;;;;;25.52;17.13;;;10.20;99.90;;;;;;5046301;28;20214;-74
2022/03/11 00:42:39;;;;;;;27.08;16.90;;;10.10;99.90;;;;;;5078743;28;20021;-74
2022/03/11 00:45:05;;;;;;;26.83;16.90;;;10.10;99.90;;;;;;5062620;28;20200;-74
2022/03/11 00:47:31;;;;;;;23.73;15.07;;;10.20;99.90;;;;;;5063980;28;20057;-76
2022/03/11 00:49:57;;;;;;;24.77;16.00;;;10.20;99.90;;;;;;5062407;28;20064;-75
2022/03/11 00:52:23;;;;;;;28.02;16.63;;;10.20;99.90;;;;;;5078728;28;20029;-74
2022/03/11 00:54:49;;;;;;;25.48;14.80;;;10.30;99.90;;;;;;5063856;28;20059;-74
2022/03/11 00:57:16;;;;;;;23.38;14.85;;;10.30;99.90;;;;;;5062537;28;20054;-75
2022/03/11 00:59:42;;;;;;;25.45;15.60;;;10.30;99.90;;;;;;5062600;28;20043;-76
2022/03/11 01:02:08;;;;;;;24.45;14.85;;;10.30;99.90;;;;;;5061782;28;20292;-74
2022/03/11 01:04:33;;;;;;;22.77;15.15;;;10.30;99.90;;;;;;5063654;28;20025;-76
2022/03/11 01:06:59;;;;;;;26.77;15.13;;;10.40;99.90;;;;;;5063424;28;20083;-75
2022/03/11 01:09:25;;;;;;;23.23;14.25;;;10.40;99.90;;;;;;5061615;28;20043;-74
2022/03/11 01:11:51;;;;;;;29.90;14.90;;;10.40;99.90;;;;;;5064453;28;20021;-76
2022/03/11 01:14:16;;;;;;;25.30;15.05;;;10.40;99.90;;;;;;5082530;28;20075;-76
2022/03/11 01:16:42;;;;;;;23.00;13.82;;;10.40;99.90;;;;;;5065497;28;20282;-74
2022/03/11 01:19:08;;;;;;;23.77;14.98;;;10.40;99.90;;;;;;5082434;28;20020;-75
2022/03/11 01:21:34;;;;;;;22.17;14.50;;;10.40;99.90;;;;;;5082276;28;20104;-75
2022/03/11 01:23:59;;;;;;;24.30;14.45;;;10.40;99.90;;;;;;5083170;28;20087;-74
2022/03/11 01:26:25;;;;;;;26.30;13.98;;;10.40;99.90;;;;;;5081935;28;20090;-75
2022/03/11 01:28:52;;;;;;;21.40;13.75;;;10.50;99.90;;;;;;5083496;28;20286;-76
2022/03/11 01:31:17;;;;;;;22.92;13.43;;;10.50;99.90;;;;;;5082773;28;20318;-75
2022/03/11 01:33:45;;;;;;;25.90;13.25;;;10.50;99.90;;;;;;5068641;28;20028;-75
2022/03/11 01:36:12;;;;;;;20.58;12.77;;;10.50;99.90;;;;;;5085773;28;20020;-75
2022/03/11 01:38:39;;;;;;;23.35;13.05;;;10.50;99.90;;;;;;5083075;28;20021;-75
2022/03/11 01:41:06;;;;;;;20.00;12.35;;;10.50;99.90;;;;;;5065825;28;20028;-75
2022/03/11 01:43:50;;;;;;;16.27;11.57;;;10.60;99.90;;;;;;5065985;28;20050;-75
2022/03/11 01:46:15;;;;;;;15.38;10.73;;;10.60;99.90;;;;;;5082741;28;20021;-75
2022/03/11 01:48:41;;;;;;;19.42;11.23;;;10.60;99.90;;;;;;5082324;28;20072;-75
2022/03/11 01:51:07;;;;;;;14.95;10.00;;;10.70;99.90;;;;;;5064355;28;20029;-75
2022/03/11 01:53:32;;;;;;;13.68;9.40;;;10.80;99.90;;;;;;5082340;28;20127;-76
2022/03/11 01:55:58;;;;;;;12.85;8.80;;;10.80;99.90;;;;;;5082645;28;20173;-76
2022/03/11 01:58:26;;;;;;;18.30;8.85;;;10.80;99.90;;;;;;5066894;28;20079;-75
2022/03/11 02:00:52;;;;;;;13.45;8.95;;;10.80;99.90;;;;;;5082092;28;20032;-75
2022/03/11 02:03:17;;;;;;;12.38;8.20;;;10.90;99.90;;;;;;5066819;28;20300;-76
2022/03/11 02:05:43;;;;;;;11.90;8.07;;;10.80;99.90;;;;;;5066921;28;20025;-75
2022/03/11 02:08:09;;;;;;;13.65;8.80;;;10.80;99.90;;;;;;5081863;28;20033;-76
2022/03/11 02:10:35;;;;;;;11.88;7.78;;;10.80;99.90;;;;;;5065256;28;20041;-75
2022/03/11 02:13:05;;;;;;;13.48;7.65;;;10.80;99.90;;;;;;5076765;28;20097;-74
2022/03/11 02:15:32;;;;;;;12.45;7.60;;;10.80;99.90;;;;;;5086399;28;20407;-75
2022/03/11 02:17:57;;;;;;;13.27;7.40;;;10.80;99.90;;;;;;5085382;28;20028;-75
2022/03/11 02:20:23;;;;;;;13.35;7.70;;;10.80;99.90;;;;;;5068760;28;20027;-74
2022/03/11 02:22:52;;;;;;;12.02;7.57;;;10.80;99.90;;;;;;5102404;28;20029;-76
2022/03/11 02:25:18;;;;;;;12.38;7.03;;;10.90;99.90;;;;;;5085365;28;20039;-75
2022/03/11 02:27:46;;;;;;;10.90;7.00;;;10.90;99.90;;;;;;5086258;28;20312;-75
2022/03/11 02:30:20;;;;;;;9.18;6.07;;;10.90;99.90;;;;;;5084710;28;20086;-75
2022/03/11 02:32:47;;;;;;;8.52;5.57;;;10.80;99.90;;;;;;5084973;28;20024;-75
2022/03/11 02:35:14;;;;;;;11.38;6.03;;;10.80;99.90;;;;;;5085176;28;20020;-76
2022/03/11 02:37:40;;;;;;;12.07;6.35;;;10.80;99.90;;;;;;5075282;28;20300;-75
2022/03/11 02:40:06;;;;;;;10.90;5.90;;;10.70;99.90;;;;;;5065872;28;20029;-75
2022/03/11 02:42:32;;;;;;;10.32;6.28;;;10.70;99.90;;;;;;5048232;28;20036;-76
2022/03/11 02:44:59;;;;;;;13.07;6.75;;;10.70;99.90;;;;;;5064418;28;20303;-75
2022/03/11 02:47:26;;;;;;;11.23;6.68;;;10.70;99.90;;;;;;5065240;28;20072;-75
2022/03/11 02:49:51;;;;;;;11.27;6.57;;;10.70;99.90;;;;;;5064625;28;20198;-76
2022/03/11 02:52:17;;;;;;;12.68;6.68;;;10.70;99.90;;;;;;5064720;28;20025;-75
2022/03/11 02:54:43;;;;;;;10.43;6.45;;;10.70;99.90;;;;;;5065934;28;20024;-75
2022/03/11 02:57:08;;;;;;;10.35;6.53;;;10.70;99.90;;;;;;5064630;28;20031;-74
2022/03/11 02:59:34;;;;;;;12.23;6.25;;;10.70;99.90;;;;;;5064710;28;20021;-77
2022/03/11 03:02:00;;;;;;;9.35;6.32;;;10.70;99.90;;;;;;5064397;28;20232;-74
2022/03/11 03:04:25;;;;;;;9.80;5.65;;;10.70;99.90;;;;;;5065551;28;20095;-76
2022/03/11 03:06:52;;;;;;;10.57;5.93;;;10.70;99.90;;;;;;5064902;28;20025;-75
2022/03/11 03:09:17;;;;;;;9.57;6.13;;;10.80;99.90;;;;;;5064862;28;20024;-75
2022/03/11 03:11:43;;;;;;;11.38;6.28;;;10.80;99.90;;;;;;5066445;28;20066;-75
2022/03/11 03:14:09;;;;;;;10.25;5.32;;;10.80;99.90;;;;;;5085710;28;20028;-75
2022/03/11 03:16:34;;;;;;;9.85;5.60;;;10.80;99.90;;;;;;5085264;28;20087;-76
2022/03/11 03:19:00;;;;;;;8.40;5.53;;;10.80;99.90;;;;;;5084339;28;20028;-76
2022/03/11 03:21:27;;;;;;;9.13;5.75;;;10.80;99.90;;;;;;5067495;28;20020;-76
2022/03/11 03:23:53;;;;;;;9.32;5.85;;;10.80;99.90;;;;;;5084340;28;20025;-75
2022/03/11 03:26:19;;;;;;;12.10;6.53;;;10.70;99.90;;;;;;5084099;28;20064;-76
2022/03/11 03:28:45;;;;;;;8.05;5.45;;;10.80;99.90;;;;;;5067306;28;20373;-75
2022/03/11 03:31:10;;;;;;;11.10;5.88;;;10.80;99.90;;;;;;5067166;28;20024;-76
2022/03/11 03:33:36;;;;;;;14.68;6.35;;;10.80;99.90;;;;;;5085377;28;20296;-75
2022/03/11 03:36:02;;;;;;;10.27;5.80;;;10.80;99.90;;;;;;5083941;28;20024;-75
2022/03/11 03:38:28;;;;;;;9.88;5.90;;;10.80;99.90;;;;;;5080256;28;20066;-75
2022/03/11 03:40:53;;;;;;;9.38;6.38;;;10.80;99.90;;;;;;5064569;28;20032;-76
2022/03/11 03:43:19;;;;;;;15.07;6.07;;;10.80;99.90;;;;;;5080572;28;20024;-75
2022/03/11 03:45:45;;;;;;;10.82;6.10;;;10.80;99.90;;;;;;5079962;28;20260;-75
2022/03/11 03:48:11;;;;;;;12.88;5.45;;;10.80;99.90;;;;;;5080563;28;20048;-75
2022/03/11 03:50:36;;;;;;;9.55;5.65;;;10.80;99.90;;;;;;5063524;28;20021;-75
2022/03/11 03:53:02;;;;;;;10.43;6.20;;;10.80;99.90;;;;;;5064595;28;20087;-75
2022/03/11 03:55:28;;;;;;;10.77;5.82;;;10.70;99.90;;;;;;5063045;28;20043;-75
2022/03/11 03:57:53;;;;;;;10.75;5.45;;;10.70;99.90;;;;;;5080194;28;20028;-75
2022/03/11 04:00:20;;;;;;;10.20;5.75;;;10.70;99.90;;;;;;5079607;28;20021;-76
2022/03/11 04:02:49;;;;;;;10.93;5.65;;;10.60;99.90;;;;;;5080048;28;20099;-75
2022/03/11 04:05:16;;;;;;;13.73;5.50;;;10.60;99.90;;;;;;5079901;28;20021;-76
2022/03/11 04:07:43;;;;;;;12.95;5.25;;;10.50;99.90;;;;;;5062880;28;20050;-75
2022/03/11 04:10:10;;;;;;;8.88;5.72;;;10.40;99.90;;;;;;5063763;28;20057;-75
2022/03/11 04:12:36;;;;;;;10.25;5.10;;;10.40;99.90;;;;;;5087871;28;20036;-74
2022/03/11 04:15:02;;;;;;;10.60;5.38;;;10.30;99.90;;;;;;5100195;28;20323;-75
2022/03/11 04:17:28;;;;;;;11.23;5.53;;;10.20;99.90;;;;;;5083038;28;20024;-76
2022/03/11 04:19:54;;;;;;;11.63;5.20;;;10.20;99.90;;;;;;5100047;28;20095;-76
2022/03/11 04:22:19;;;;;;;12.07;5.45;;;10.20;99.90;;;;;;5099698;28;20028;-75
2022/03/11 04:24:45;;;;;;;14.38;5.38;;;10.20;99.90;;;;;;5084009;28;20020;-75
2022/03/11 04:27:11;;;;;;;6.43;4.28;;;10.10;99.90;;;;;;5099607;28;20047;-76
2022/03/11 04:29:37;;;;;;;10.45;4.95;;;10.10;99.90;;;;;;5100058;28;20274;-75
2022/03/11 04:32:03;;;;;;;11.68;5.18;;;10.10;99.90;;;;;;5099511;28;20027;-75
2022/03/11 04:34:29;;;;;;;10.35;5.00;;;10.00;99.90;;;;;;5083888;28;20035;-75
2022/03/11 04:36:56;;;;;;;12.07;4.80;;;10.00;99.90;;;;;;5095712;28;20307;-75
2022/03/11 04:39:26;;;;;;;17.65;5.47;;;10.00;99.90;;;;;;5046169;28;20048;-74
2022/03/11 04:41:53;;;;;;;17.20;4.38;;;9.90;99.90;;;;;;5063031;28;20021;-75
2022/03/11 04:44:19;;;;;;;11.98;4.80;;;9.90;99.90;;;;;;5062412;28;20019;-75
2022/03/11 04:46:46;;;;;;;11.52;4.72;;;9.80;99.90;;;;;;5062326;28;20027;-74
2022/03/11 04:49:11;;;;;;;19.25;6.18;;;9.90;99.90;;;;;;5063744;28;20369;-75
2022/03/11 04:51:38;;;;;;;9.07;5.13;;;9.80;99.90;;;;;;5061156;28;20033;-74
2022/03/11 04:54:05;;;;;;;10.75;4.88;;;9.80;99.90;;;;;;5079386;28;20296;-75
2022/03/11 04:56:32;;;;;;;11.25;5.05;;;9.70;99.90;;;;;;5077858;28;20056;-75
2022/03/11 04:58:58;;;;;;;7.68;4.18;;;9.70;99.90;;;;;;5079014;28;20219;-75
2022/03/11 05:01:24;;;;;;;10.75;4.97;;;9.80;99.90;;;;;;5062478;28;20025;-74
2022/03/11 05:03:50;;;;;;;13.50;5.15;;;9.80;99.90;;;;;;5063558;28;20239;-75
2022/03/11 05:06:16;;;;;;;17.10;4.60;;;9.70;99.90;;;;;;5063475;28;20025;-75
2022/03/11 05:08:42;;;;;;;12.13;5.20;;;9.70;99.90;;;;;;5045825;28;20029;-75
2022/03/11 05:11:08;;;;;;;11.80;4.90;;;9.70;99.90;;;;;;5078994;28;20052;-76
2022/03/11 05:13:34;;;;;;;9.48;5.10;;;9.70;99.90;;;;;;5078583;28;20054;-75
2022/03/11 05:16:00;;;;;;;12.25;5.05;;;9.70;99.90;;;;;;5083854;28;20266;-75
2022/03/11 05:18:26;;;;;;;9.57;5.03;;;9.70;99.90;;;;;;5083360;28;20203;-74
2022/03/11 05:20:52;;;;;;;8.15;4.68;;;9.60;99.90;;;;;;5082462;28;20051;-74
2022/03/11 05:23:18;;;;;;;12.68;4.60;;;9.60;99.90;;;;;;5082024;28;20052;-74
2022/03/11 05:25:44;;;;;;;13.88;4.70;;;9.60;99.90;;;;;;5099094;28;20032;-75
2022/03/11 05:28:09;;;;;;;13.43;5.07;;;9.60;99.90;;;;;;5098658;28;20108;-75
2022/03/11 05:30:36;;;;;;;8.63;4.50;;;9.60;99.90;;;;;;5082870;28;20028;-76
2022/03/11 05:33:02;;;;;;;12.65;4.82;;;9.60;99.90;;;;;;5083307;28;20078;-76
2022/03/11 05:35:28;;;;;;;9.57;4.85;;;9.60;99.90;;;;;;5081949;28;20024;-75
2022/03/11 05:37:54;;;;;;;10.13;4.93;;;9.50;99.90;;;;;;5078702;28;20132;-75
2022/03/11 05:40:20;;;;;;;8.93;4.47;;;9.50;99.90;;;;;;5061944;28;20029;-75
2022/03/11 05:42:45;;;;;;;8.80;4.47;;;9.50;99.90;;;;;;5062731;28;20021;-75
2022/03/11 05:45:12;;;;;;;9.55;4.32;;;9.50;99.90;;;;;;5044634;28;20031;-75
2022/03/11 05:47:38;;;;;;;8.13;4.72;;;9.50;99.90;;;;;;5044558;28;20079;-75
2022/03/11 05:50:04;;;;;;;9.57;4.45;;;9.50;99.90;;;;;;5045074;28;20033;-75
2022/03/11 05:52:30;;;;;;;9.68;5.10;;;9.50;99.90;;;;;;5060142;28;20032;-75
2022/03/11 05:54:56;;;;;;;10.85;4.88;;;9.50;99.90;;;;;;5061564;28;20017;-75
2022/03/11 05:57:21;;;;;;;10.23;5.10;;;9.50;99.90;;;;;;5044688;28;20078;-75
2022/03/11 05:59:47;;;;;;;12.18;5.25;;;9.50;99.90;;;;;;5045162;28;20066;-74
2022/03/11 06:02:13;;;;;;;9.85;5.15;;;9.50;99.90;;;;;;5060655;28;20346;-75
2022/03/11 06:04:39;;;;;;;10.02;5.35;;;9.50;99.90;;;;;;5044874;28;20181;-75
2022/03/11 06:07:05;;;;;;;11.98;5.45;;;9.50;99.90;;;;;;5045115;28;20024;-76
2022/03/11 06:09:31;;;;;;;13.02;6.00;;;9.50;99.90;;;;;;5044971;28;20363;-76
2022/03/11 06:11:57;;;;;;;13.40;5.72;;;9.50;99.90;;;;;;5062744;28;20020;-76
2022/03/11 06:14:23;;;;;;;11.68;5.95;;;9.50;99.90;;;;;;5045193;28;20075;-76
2022/03/11 06:16:49;;;;;;;13.70;6.20;;;9.50;99.90;;;;;;5044692;28;20243;-75
2022/03/11 06:19:15;;;;;;;17.63;6.55;;;9.60;99.90;;;;;;5030527;28;20017;-75
2022/03/11 06:21:41;;;;;;;15.77;6.40;;;9.60;99.90;;;;;;5065923;28;20033;-75
2022/03/11 06:24:06;;;;;;;12.20;6.43;;;9.60;99.90;;;;;;5066286;28;20084;-76
2022/03/11 06:26:32;;;;;;;13.05;5.97;;;9.60;99.90;;;;;;5065537;28;20024;-75
2022/03/11 06:28:58;;;;;;;10.15;5.35;;;9.60;99.90;;;;;;5081654;28;20024;-77
2022/03/11 06:31:23;;;;;;;12.07;5.60;;;9.60;99.90;;;;;;5064823;28;20292;-75
2022/03/11 06:33:49;;;;;;;10.50;5.32;;;9.70;99.90;;;;;;5066170;28;20017;-76
2022/03/11 06:36:15;;;;;;;11.10;5.88;;;9.70;99.90;;;;;;5065117;28;20040;-76
2022/03/11 06:38:40;;;;;;;15.90;5.82;;;9.70;99.90;;;;;;5064532;28;20021;-77
2022/03/11 06:41:06;;;;;;;14.60;5.82;;;9.70;99.90;;;;;;5048636;28;20027;-74
2022/03/11 06:43:32;;;;;;;15.57;6.28;;;9.70;99.90;;;;;;5066198;28;20021;-76
2022/03/11 06:45:58;;;;;;;9.95;5.57;;;9.70;99.90;;;;;;5064945;28;20013;-78
2022/03/11 06:48:24;;;;;;;12.13;5.65;;;9.70;99.90;;;;;;5047828;28;20221;-75
2022/03/11 06:50:49;;;;;;;11.45;6.03;;;9.80;99.90;;;;;;5065297;28;20308;-77
2022/03/11 06:53:16;;;;;;;15.35;6.63;;;9.80;99.90;;;;;;5046714;28;20098;-77
2022/03/11 06:55:42;;;;;;;17.13;6.43;;;9.80;99.90;;;;;;5064964;28;20021;-76
2022/03/11 06:58:07;;;;;;;15.35;6.28;;;9.80;99.90;;;;;;5081353;28;20048;-79
2022/03/11 07:00:33;;;;;;;14.35;5.80;;;9.80;99.90;;;;;;5031554;28;20017;-79
2022/03/11 07:02:59;;;;;;;13.25;6.68;;;9.80;99.90;;;;;;5065796;28;20304;-77
2022/03/11 07:05:25;;;;;;;15.13;6.25;;;9.80;99.90;;;;;;5066164;28;20025;-76
2022/03/11 07:07:51;;;;;;;34.25;8.07;;;9.90;99.90;;;;;;5064650;28;20025;-75
2022/03/11 07:10:17;;;;;;;18.50;7.57;;;9.90;99.90;;;;;;5065423;28;20064;-76
2022/03/11 07:12:43;;;;;;;14.32;6.20;;;9.90;99.90;;;;;;5073495;28;20473;-77
2022/03/11 07:15:09;;;;;;;9.45;5.90;;;10.00;99.90;;;;;;5067955;28;20024;-78
2022/03/11 07:17:35;;;;;;;11.90;6.25;;;10.00;99.90;;;;;;5084582;28;20357;-77
2022/03/11 07:20:03;;;;;;;12.98;6.18;;;10.00;99.90;;;;;;5084321;28;20231;-78
2022/03/11 07:22:31;;;;;;;14.60;6.97;;;10.10;99.90;;;;;;5068133;28;20029;-77
2022/03/11 07:24:58;;;;;;;11.63;6.00;;;10.10;99.90;;;;;;5085060;28;20012;-78
2022/03/11 07:27:24;;;;;;;18.15;6.32;;;10.20;99.90;;;;;;5084385;28;20028;-77
2022/03/11 07:29:50;;;;;;;14.38;6.30;;;10.10;99.90;;;;;;5066549;28;20033;-76
2022/03/11 07:32:17;;;;;;;10.52;6.15;;;10.20;99.90;;;;;;5083668;28;20024;-78
2022/03/11 07:34:43;;;;;;;15.20;6.50;;;10.20;99.90;;;;;;5085175;28;20016;-75
2022/03/11 07:37:12;;;;;;;17.27;6.30;;;10.30;99.90;;;;;;5078487;28;20131;-76
2022/03/11 07:39:40;;;;;;;11.52;6.40;;;10.20;99.90;;;;;;5063832;28;20021;-76
2022/03/11 07:42:05;;;;;;;10.90;6.20;;;10.30;99.90;;;;;;5063606;28;20331;-75
2022/03/11 07:44:33;;;;;;;10.27;6.57;;;10.30;99.90;;;;;;5063819;28;20039;-75
2022/03/11 07:46:59;;;;;;;8.90;5.70;;;10.30;99.90;;;;;;5062781;28;20367;-77
2022/03/11 07:49:25;;;;;;;11.95;6.28;;;10.40;99.90;;;;;;5063122;28;20048;-78
2022/03/11 07:51:51;;;;;;;16.13;6.80;;;10.40;99.90;;;;;;5064641;28;20027;-75
2022/03/11 07:54:16;;;;;;;14.13;6.45;;;10.40;99.90;;;;;;5063159;28;20021;-78
2022/03/11 07:56:42;;;;;;;13.40;6.75;;;10.50;99.90;;;;;;5064611;28;20099;-75
2022/03/11 07:59:09;;;;;;;17.85;7.35;;;10.50;99.90;;;;;;5063573;28;20041;-74
2022/03/11 08:01:35;;;;;;;18.67;6.97;;;10.50;99.90;;;;;;5063973;28;20193;-75
2022/03/11 08:04:00;;;;;;;10.38;6.43;;;10.60;99.90;;;;;;5063415;28;20017;-76
2022/03/11 08:06:26;;;;;;;12.30;6.05;;;10.70;99.90;;;;;;5064666;28;20025;-75
2022/03/11 08:08:52;;;;;;;12.23;6.43;;;10.70;99.90;;;;;;5063410;28;20048;-76
2022/03/11 08:11:18;;;;;;;20.30;8.27;;;10.70;99.90;;;;;;5066951;28;20029;-77
2022/03/11 08:13:43;;;;;;;13.15;6.32;;;10.70;99.90;;;;;;5076747;28;20090;-74
2022/03/11 08:16:09;;;;;;;12.73;6.65;;;10.80;99.90;;;;;;5079953;28;20075;-75
2022/03/11 08:18:35;;;;;;;15.20;7.40;;;10.80;99.90;;;;;;5049535;28;20020;-72
2022/03/11 08:21:03;;;;;;;12.35;6.88;;;10.90;99.90;;;;;;5066302;28;20365;-72
2022/03/11 08:23:29;;;;;;;9.63;6.25;;;10.90;99.90;;;;;;5098234;28;20028;-74
2022/03/11 08:25:54;;;;;;;13.80;6.32;;;10.90;99.90;;;;;;5081008;28;20366;-75
2022/03/11 08:28:22;;;;;;;25.25;8.20;;;10.90;99.90;;;;;;5084467;28;20033;-74
2022/03/11 08:30:48;;;;;;;14.70;6.88;;;10.90;99.90;;;;;;5085924;28;20115;-75
2022/03/11 08:33:20;;;;;;;16.15;7.18;;;10.80;99.90;;;;;;5047274;28;20025;-76
2022/03/11 08:35:48;;;;;;;11.27;6.43;;;10.90;99.90;;;;;;5063657;28;20012;-76
2022/03/11 08:38:14;;;;;;;17.45;6.85;;;10.80;99.90;;;;;;5070475;28;20025;-74
2022/03/11 08:40:41;;;;;;;10.48;6.10;;;10.80;99.90;;;;;;5052908;28;20021;-75
2022/03/11 08:43:07;;;;;;;23.13;6.85;;;10.70;99.90;;;;;;5077963;28;20211;-72
2022/03/11 08:45:33;;;;;;;16.65;7.00;;;10.80;99.90;;;;;;5060733;28;20027;-72
2022/03/11 08:47:59;;;;;;;12.45;6.95;;;10.80;99.90;;;;;;5082860;28;20315;-77
2022/03/11 08:50:25;;;;;;;15.38;6.95;;;10.80;99.90;;;;;;5075122;28;20035;-76
2022/03/11 08:52:51;;;;;;;9.07;5.95;;;10.90;99.90;;;;;;5081852;28;20033;-75
2022/03/11 08:55:17;;;;;;;17.35;6.47;;;11.00;99.90;;;;;;5064952;28;20071;-77
2022/03/11 08:57:49;;;;;;;18.75;6.53;;;11.10;99.90;;;;;;5064975;28;20020;-74
2022/03/11 09:00:18;;;;;;;;;;;11.20;99.90;;;;;;5095635;28;20051;-73
2022/03/11 09:02:44;;;;;;;11.60;6.05;;;11.10;99.90;;;;;;5079676;28;19911;-73
2022/03/11 09:05:11;;;;;;;11.48;5.93;;;11.10;99.90;;;;;;5098959;28;20029;-76
2022/03/11 09:07:36;;;;;;;12.32;6.53;;;11.10;99.90;;;;;;5064886;28;20031;-71
2022/03/11 09:10:05;;;;;;;12.95;6.18;;;11.20;99.90;;;;;;5081815;28;20212;-73
2022/03/11 09:12:31;;;;;;;10.52;5.90;;;11.20;99.90;;;;;;5075438;28;20021;-72
2022/03/11 09:14:56;;;;;;;11.73;5.15;;;11.30;99.90;;;;;;5062590;28;20082;-72
2022/03/11 09:17:22;;;;;;;15.05;5.63;;;11.30;99.90;;;;;;5065845;28;20362;-73
2022/03/11 09:19:48;;;;;;;8.70;5.57;;;11.20;99.90;;;;;;5074263;28;20024;-76
2022/03/11 09:22:17;;;;;;;7.22;5.38;;;11.20;99.90;;;;;;5071001;28;20025;-75
2022/03/11 09:24:44;;;;;;;9.50;5.60;;;11.10;99.90;;;;;;5091762;28;20059;-74
2022/03/11 09:27:11;;;;;;;16.08;6.07;;;11.30;99.90;;;;;;5061643;28;20033;-74
2022/03/11 09:29:38;;;;;;;13.85;5.45;;;11.30;99.90;;;;;;5063646;28;20036;-77
2022/03/11 09:32:05;;;;;;;9.15;5.72;;;11.40;99.90;;;;;;5066366;28;20029;-76
2022/03/11 09:34:31;;;;;;;11.40;5.97;;;11.30;99.90;;;;;;5066832;28;20073;-76
2022/03/11 09:36:57;;;;;;;11.00;5.88;;;11.50;99.90;;;;;;5078028;28;20327;-76
2022/03/11 09:39:23;;;;;;;11.63;5.60;;;11.60;99.90;;;;;;5065169;28;20319;-72
2022/03/11 09:41:50;;;;;;;13.77;6.15;;;11.50;99.90;;;;;;5081606;28;20067;-76
2022/03/11 09:44:17;;;;;;;10.13;5.88;;;11.60;99.90;;;;;;5057745;28;20021;-73
2022/03/11 09:46:44;;;;;;;13.48;5.10;;;11.60;99.90;;;;;;5070901;28;20138;-75
2022/03/11 09:49:16;;;;;;;7.82;4.88;;;11.40;99.90;;;;;;5067699;28;20053;-72
2022/03/11 09:51:42;;;;;;;;;;;11.20;99.90;;;;;;5075794;28;20205;-76
2022/03/11 09:54:09;;;;;;;8.43;4.60;;;11.10;99.90;;;;;;5079413;28;19940;-75
2022/03/11 09:56:39;;;;;;;7.45;4.68;;;11.00;99.90;;;;;;5068973;28;20082;-73
2022/03/11 09:59:06;;;;;;;8.43;4.30;;;10.90;99.90;;;;;;5064237;28;20028;-75
2022/03/11 10:01:33;;;;;;;7.80;4.05;;;10.90;99.90;;;;;;5046921;28;20027;-75
2022/03/11 10:03:59;;;;;;;9.38;4.93;;;10.90;99.90;;;;;;5064136;28;20208;-75
2022/03/11 10:06:42;;;;;;;8.65;4.47;;;10.90;99.90;;;;;;5064449;28;20025;-75
2022/03/11 10:09:33;;;;;;;7.35;4.65;;;10.90;99.90;;;;;;5047909;28;20053;-75
2022/03/11 10:12:00;;;;;;;7.47;3.77;;;10.90;99.90;;;;;;5053999;28;20078;-73
2022/03/11 10:14:32;;;;;;;8.75;4.35;;;10.90;99.90;;;;;;5100851;28;20303;-77
2022/03/11 10:16:58;;;;;;;;;;;11.00;99.90;;;;;;5085573;28;20291;-74
2022/03/11 10:19:24;;;;;;;6.88;4.20;;;11.00;99.90;;;;;;5083768;28;19900;-71
2022/03/11 10:21:51;;;;;;;8.30;4.35;;;11.00;99.90;;;;;;5085049;28;20049;-74
2022/03/11 10:24:19;;;;;;;8.70;4.57;;;11.00;99.90;;;;;;5081903;28;20020;-74
2022/03/11 10:26:50;;;;;;;9.38;4.90;;;11.00;99.90;;;;;;5064814;28;20032;-74
2022/03/11 10:29:26;;;;;;;9.07;4.23;;;11.00;99.90;;;;;;5047086;28;20096;-74
2022/03/11 10:31:57;;;;;;;7.82;4.00;;;11.00;99.90;;;;;;5069068;28;20225;-72
2022/03/11 10:34:25;;;;;;;5.85;3.80;;;11.00;99.90;;;;;;5050746;28;20036;-74
2022/03/11 10:36:57;;;;;;;9.35;4.43;;;10.90;99.90;;;;;;5096889;28;20051;-71
2022/03/11 10:39:26;;;;;;;13.75;4.18;;;10.80;99.90;;;;;;5063395;28;20067;-72
2022/03/11 10:41:53;;;;;;;8.65;4.05;;;10.80;99.90;;;;;;5063376;28;20021;-74
2022/03/11 10:44:21;;;;;;;6.93;3.78;;;10.90;99.90;;;;;;5063631;28;20104;-74
2022/03/11 10:46:48;;;;;;;8.63;4.55;;;11.00;99.90;;;;;;5063033;28;20021;-75
2022/03/11 10:49:33;;;;;;;10.32;4.35;;;11.00;99.90;;;;;;5051969;28;966693;-76
2022/03/11 10:52:00;;;;;;;8.15;4.28;;;11.00;99.90;;;;;;5085618;28;20043;-75
2022/03/11 10:54:28;;;;;;;13.13;4.50;;;11.10;99.90;;;;;;5084338;28;20095;-74
2022/03/11 10:56:57;;;;;;;15.70;4.60;;;11.10;99.90;;;;;;5082870;28;20385;-74
2022/03/11 10:59:27;;;;;;;9.98;4.10;;;11.00;99.90;;;;;;5064965;28;20318;-75
2022/03/11 11:01:55;;;;;;;8.07;4.30;;;11.10;99.90;;;;;;5067628;28;20048;-75
2022/03/11 11:04:21;;;;;;;10.65;4.13;;;11.10;99.90;;;;;;5082822;28;20025;-73
2022/03/11 11:06:48;;;;;;;8.48;4.30;;;11.10;99.90;;;;;;5065312;28;20028;-77
2022/03/11 11:09:17;;;;;;;19.83;4.93;;;11.20;99.90;;;;;;5066571;28;20274;-74
2022/03/11 11:11:43;;;;;;;12.48;4.45;;;11.20;99.90;;;;;;5067118;28;20230;-74
2022/03/11 11:14:12;;;;;;;25.10;4.93;;;11.20;99.90;;;;;;5101139;28;20215;-75
2022/03/11 11:16:41;;;;;;;17.15;4.38;;;11.20;99.90;;;;;;5071665;28;20028;-76
2022/03/11 11:19:09;;;;;;;32.78;7.07;;;11.20;99.90;;;;;;5049233;28;20071;-74
2022/03/11 11:21:38;;;;;;;18.45;4.80;;;11.20;99.90;;;;;;5046955;28;20016;-76
2022/03/11 11:24:09;;;;;;;24.38;5.13;;;11.20;99.90;;;;;;5064241;28;20025;-76
2022/03/11 11:26:38;;;;;;;18.77;4.72;;;11.10;99.90;;;;;;5047355;28;20024;-78
2022/03/11 11:29:05;;;;;;;21.75;5.35;;;11.10;99.90;;;;;;5047405;28;20430;-75
2022/03/11 11:31:31;;;;;;;28.60;5.88;;;11.20;99.90;;;;;;5069577;28;20020;-76
2022/03/11 11:33:57;;;;;;;13.32;4.47;;;11.20;99.90;;;;;;5066721;28;20029;-75
2022/03/11 11:36:40;;;;;;;74.95;8.80;;;11.20;99.90;;;;;;5079957;28;20240;-75
2022/03/11 11:39:08;;;;;;;14.85;6.65;;;11.30;99.90;;;;;;5063846;28;20092;-75
2022/03/11 11:41:35;;;;;;;62.83;10.13;;;11.20;99.90;;;;;;5070983;28;20016;-76
2022/03/11 11:44:03;;;;;;;15.15;4.95;;;11.20;99.90;;;;;;5084962;28;20031;-76
2022/03/11 11:46:31;;;;;;;17.73;5.80;;;11.20;99.90;;;;;;5061491;28;20212;-76
2022/03/11 11:49:00;;;;;;;18.35;7.85;;;11.20;99.90;;;;;;5047042;28;20379;-76
2022/03/11 11:51:54;;;;;;;10.02;4.68;;;11.20;99.90;;;;;;5046752;28;20075;-76
2022/03/11 11:54:33;;;;;;;16.90;5.05;;;11.20;99.90;;;;;;5063440;28;20098;-76
2022/03/11 11:57:01;;;;;;;14.05;5.10;;;11.10;99.90;;;;;;5078871;28;20028;-77
2022/03/11 11:59:29;;;;;;;25.05;5.15;;;11.30;99.90;;;;;;5082489;28;20032;-73
2022/03/11 12:01:57;;;;;;;22.52;4.88;;;11.30;99.90;;;;;;5089592;28;20033;-77
2022/03/11 12:04:36;;;;;;;8.77;3.88;;;11.20;99.90;;;;;;5079636;28;20032;-78
2022/03/11 12:07:05;;;;;;;6.13;3.40;;;11.20;99.90;;;;;;5063959;28;20028;-77
2022/03/11 12:09:48;;;;;;;8.93;3.95;;;11.20;99.90;;;;;;5060610;28;20040;-77
2022/03/11 12:12:54;;;;;;;7.43;3.50;;;11.20;99.90;;;;;;5069275;28;20234;-75
2022/03/11 12:15:22;;;;;;;7.30;3.70;;;11.20;99.90;;;;;;5065878;28;20044;-74
2022/03/11 12:17:58;;;;;;;15.55;4.50;;;11.20;99.90;;;;;;5046374;28;20308;-74
2022/03/11 12:20:49;;;;;;;13.52;3.92;;;11.10;99.90;;;;;;5062844;28;20215;-75
2022/03/11 12:23:20;;;;;;;9.65;3.70;;;11.20;99.90;;;;;;5071716;28;20087;-76
2022/03/11 12:25:50;;;;;;;7.25;3.60;;;11.20;99.90;;;;;;5078602;28;20097;-78
2022/03/11 12:28:31;;;;;;;6.03;3.22;;;11.20;99.90;;;;;;5063003;28;20021;-78
2022/03/11 12:31:00;;;;;;;5.40;3.60;;;11.20;99.90;;;;;;5078485;28;20074;-77
2022/03/11 12:33:33;;;;;;;8.45;3.33;;;11.20;99.90;;;;;;5062412;28;20028;-82
2022/03/11 12:36:00;;;;;;;10.30;3.33;;;11.20;99.90;;;;;;5079104;28;20041;-74
2022/03/11 12:38:28;;;;;;;8.20;3.80;;;11.20;99.90;;;;;;5095495;28;20079;-75
2022/03/11 12:41:00;;;;;;;6.57;2.78;;;11.10;99.90;;;;;;5064096;28;20048;-79